EUFO2: Eufaula Lake

Data processed at Thu Nov 27 23:09:33 2014 Central Standard Time


All information presented herein is the property of the government of the United States of America and may be revised or deleted at any time without prior notice.
Dissemination of this information without the expressed written consent of the Public Affairs Office, Tulsa District U.S. Army Corps of Engineers is strictly prohibited.
These data are gathered electronically and, as presented, have not undergone any form of quality control. These data are not guaranteed to be valid or correct.
Go to home page.
Go to station list.
Go to station map.

Upstream stations:

Downstream station: Previous Day
Next Day
Current Day

Display graphics.
Display DCP transmissions.


    
    SHEF ID:       EUFO2     Eufaula Lake
    STATION TYPE:  RESERVOIR
    Flood Control Pool:  Bottom =  585.00, Top =  597.00
    
                   PRECIP ELEVATION   STORAGE   TW-ELEV    INFLOW   RELEASE  AIR-TEMP  WIND-DIRWIND-SPEED REL-HUMID SOLAR-RAD   VOLTAGE
                   INCHES      FEET      ACFT      FEET       CFS       CFS     DEG-F   DEGREES       MPH   PERCENT      W/M2     VOLTS
                     GOES      GOES      GOES      GOES  COMPRESQ    POWERQ      GOES      GOES      GOES      GOES      GOES      GOES
       (Cen)
    11/27 01:00      0.00    581.86   1863017    484.86      ----      ----     37.90    345.40      2.86     62.70      0.00     13.77
    11/27 02:00      0.00    581.86   1863017    484.69      ----      ----     36.27    342.90      3.46     64.35      0.00     13.76
    11/27 03:00      0.00    581.88   1864700    484.59      ----      ----     35.04    338.90      2.18     67.76      0.00     13.76
    11/27 04:00      0.00    581.89   1865541    484.48      ----      ----     34.72    331.80      1.14     71.92      0.00     13.76
    11/27 05:00      0.00    581.89   1865541    484.41      ----      ----     33.62    332.80      1.09     75.09      0.00     13.76
    11/27 06:00      0.00    581.88   1864700    484.77      ----      ----     31.77    337.50      2.44     75.76      0.00     13.76
    11/27 07:00      0.00    581.85   1862175    487.07      ----      ----     30.67    341.40      2.14     75.82      0.00     13.76
    11/27 08:00      0.00    581.84   1861334    488.46      ----      ----     31.42    336.10      2.33     72.89     30.00     13.75
    11/27 09:00      0.00    581.86   1863017    488.51      ----      ----     34.29    342.50      1.89     66.67    198.00     13.75
    11/27 10:00      0.00    581.85   1862175    486.73      ----      ----     38.89    358.30      1.15     56.78    367.00     13.75
    11/27 11:00      0.00    581.86   1863017    485.89      ----      ----     38.89    249.20      1.21     59.16    500.00     13.76
    11/27 12:00      0.00    581.86   1863017    485.40      ----      ----     39.88    279.80      1.97     62.64    572.00     13.76
    11/27 13:00      0.00    581.87   1863858    485.10      ----      ----     46.58    124.40      2.24     44.50    586.00     13.77
    11/27 14:00      0.00    581.86   1863017    484.89      ----      ----     47.70    124.60      3.38     40.66    539.00     13.77
    11/27 15:00      0.00    581.85   1862175    484.73      ----      ----     48.69    113.50      4.04     38.77    427.00     13.77
    11/27 16:00      0.00    581.85   1862175    484.61      ----      ----     49.78    109.50      3.94     37.67    290.00     13.77
    11/27 17:00      0.00    581.85   1862175    484.51      ----      ----     48.02    104.90      4.95     38.34    120.00     13.78
    11/27 18:00      0.00    581.85   1862175    484.43      ----      ----     44.62    111.00      3.69     47.74      3.00     13.77
    11/27 19:00      0.00    581.86   1863017    484.37      ----      ----     42.08    124.60      2.85     57.26      0.00     13.77
    11/27 20:00      0.00    581.86   1863017    484.31      ----      ----     39.88    113.90      4.71     66.67      0.00     13.77
    11/27 21:00      0.00    581.87   1863858    484.26      ----      ----     42.21    115.50      5.08     53.42      0.00     13.77
    11/27 22:00      0.00    581.86   1863017    484.22      ----      ----     39.56    120.60      4.57     65.20      0.00     13.77
    11/27 23:00      0.00    581.87   1863858    484.18      ----      ----     37.69    139.80      4.43     75.40      0.00     13.77
    11/28 00:00      ----      ----      ----      ----      ----      ----      ----      ----      ----      ----      ----      ----